sensor_id;sensor_type;location;lat;lon;timestamp;temperature;humidity
20728;DHT22;10525;50.154;8.198;2022-08-19T00:00:36;19.10;99.90
20728;DHT22;10525;50.154;8.198;2022-08-19T00:03:03;19.10;99.90
20728;DHT22;10525;50.154;8.198;2022-08-19T00:05:29;19.10;99.90
20728;DHT22;10525;50.154;8.198;2022-08-19T00:07:58;19.00;99.90
20728;DHT22;10525;50.154;8.198;2022-08-19T00:10:25;19.00;99.90
20728;DHT22;10525;50.154;8.198;2022-08-19T00:12:52;19.00;99.90
20728;DHT22;10525;50.154;8.198;2022-08-19T00:15:20;19.10;99.90
20728;DHT22;10525;50.154;8.198;2022-08-19T00:17:47;19.00;99.90
20728;DHT22;10525;50.154;8.198;2022-08-19T00:20:16;18.90;99.90
20728;DHT22;10525;50.154;8.198;2022-08-19T00:22:43;18.90;99.90
20728;DHT22;10525;50.154;8.198;2022-08-19T00:25:11;18.80;99.90
20728;DHT22;10525;50.154;8.198;2022-08-19T00:27:38;18.90;99.90
20728;DHT22;10525;50.154;8.198;2022-08-19T00:30:07;18.90;99.90
20728;DHT22;10525;50.154;8.198;2022-08-19T00:32:34;18.90;99.90
20728;DHT22;10525;50.154;8.198;2022-08-19T00:35:01;18.90;99.90
20728;DHT22;10525;50.154;8.198;2022-08-19T00:37:29;18.90;99.90
20728;DHT22;10525;50.154;8.198;2022-08-19T00:39:55;18.80;99.90
20728;DHT22;10525;50.154;8.198;2022-08-19T00:42:23;18.80;99.90
20728;DHT22;10525;50.154;8.198;2022-08-19T00:44:53;18.80;99.90
20728;DHT22;10525;50.154;8.198;2022-08-19T00:47:20;18.70;99.90
20728;DHT22;10525;50.154;8.198;2022-08-19T00:49:48;18.70;99.90
20728;DHT22;10525;50.154;8.198;2022-08-19T00:52:19;18.70;99.90
20728;DHT22;10525;50.154;8.198;2022-08-19T00:54:47;18.70;99.90
20728;DHT22;10525;50.154;8.198;2022-08-19T00:57:16;18.70;99.90
20728;DHT22;10525;50.154;8.198;2022-08-19T00:59:48;18.70;99.90
20728;DHT22;10525;50.154;8.198;2022-08-19T01:02:18;18.80;99.90
20728;DHT22;10525;50.154;8.198;2022-08-19T01:04:44;18.80;99.90
20728;DHT22;10525;50.154;8.198;2022-08-19T01:07:12;18.80;99.90
20728;DHT22;10525;50.154;8.198;2022-08-19T01:09:39;18.80;99.90
20728;DHT22;10525;50.154;8.198;2022-08-19T01:12:06;18.80;99.90
20728;DHT22;10525;50.154;8.198;2022-08-19T01:14:33;18.70;99.90
20728;DHT22;10525;50.154;8.198;2022-08-19T01:17:02;18.70;99.90
20728;DHT22;10525;50.154;8.198;2022-08-19T01:19:32;18.60;99.90
20728;DHT22;10525;50.154;8.198;2022-08-19T01:22:03;18.60;99.90
20728;DHT22;10525;50.154;8.198;2022-08-19T01:24:33;18.70;99.90
20728;DHT22;10525;50.154;8.198;2022-08-19T01:27:02;18.70;99.90
20728;DHT22;10525;50.154;8.198;2022-08-19T01:29:29;18.70;99.90
20728;DHT22;10525;50.154;8.198;2022-08-19T01:31:57;18.70;99.90
20728;DHT22;10525;50.154;8.198;2022-08-19T01:34:24;18.60;99.90
20728;DHT22;10525;50.154;8.198;2022-08-19T01:36:51;18.50;99.90
20728;DHT22;10525;50.154;8.198;2022-08-19T01:39:20;18.60;99.90
20728;DHT22;10525;50.154;8.198;2022-08-19T01:41:49;18.50;99.90
20728;DHT22;10525;50.154;8.198;2022-08-19T01:44:17;18.50;99.90
20728;DHT22;10525;50.154;8.198;2022-08-19T01:46:47;18.40;99.90
20728;DHT22;10525;50.154;8.198;2022-08-19T01:49:15;18.40;99.90
20728;DHT22;10525;50.154;8.198;2022-08-19T01:51:42;18.40;99.90
20728;DHT22;10525;50.154;8.198;2022-08-19T01:54:10;18.30;99.90
20728;DHT22;10525;50.154;8.198;2022-08-19T01:56:36;18.30;99.90
20728;DHT22;10525;50.154;8.198;2022-08-19T01:59:09;18.30;99.90
20728;DHT22;10525;50.154;8.198;2022-08-19T02:01:37;18.20;99.90
20728;DHT22;10525;50.154;8.198;2022-08-19T02:04:03;18.20;99.90
20728;DHT22;10525;50.154;8.198;2022-08-19T02:06:31;18.10;99.90
20728;DHT22;10525;50.154;8.198;2022-08-19T02:08:58;18.10;99.90
20728;DHT22;10525;50.154;8.198;2022-08-19T02:11:27;18.10;99.90
20728;DHT22;10525;50.154;8.198;2022-08-19T02:13:57;18.10;99.90
20728;DHT22;10525;50.154;8.198;2022-08-19T02:16:25;18.10;99.90
20728;DHT22;10525;50.154;8.198;2022-08-19T02:18:52;18.10;99.90
20728;DHT22;10525;50.154;8.198;2022-08-19T02:21:21;18.10;99.90
20728;DHT22;10525;50.154;8.198;2022-08-19T02:23:48;18.10;99.90
20728;DHT22;10525;50.154;8.198;2022-08-19T02:26:16;18.10;99.90
20728;DHT22;10525;50.154;8.198;2022-08-19T02:28:43;18.00;99.90
20728;DHT22;10525;50.154;8.198;2022-08-19T02:31:11;17.90;99.90
20728;DHT22;10525;50.154;8.198;2022-08-19T02:33:40;17.80;99.90
20728;DHT22;10525;50.154;8.198;2022-08-19T02:36:09;17.70;99.90
20728;DHT22;10525;50.154;8.198;2022-08-19T02:38:36;17.70;99.90
20728;DHT22;10525;50.154;8.198;2022-08-19T02:41:05;17.60;99.90
20728;DHT22;10525;50.154;8.198;2022-08-19T02:43:33;17.70;99.90
20728;DHT22;10525;50.154;8.198;2022-08-19T02:46:10;17.60;99.90
20728;DHT22;10525;50.154;8.198;2022-08-19T02:48:37;17.70;99.90
20728;DHT22;10525;50.154;8.198;2022-08-19T02:51:05;17.70;99.90
20728;DHT22;10525;50.154;8.198;2022-08-19T02:53:31;17.70;99.90
20728;DHT22;10525;50.154;8.198;2022-08-19T02:55:58;17.70;99.90
20728;DHT22;10525;50.154;8.198;2022-08-19T02:58:25;17.80;99.90
20728;DHT22;10525;50.154;8.198;2022-08-19T03:00:54;17.80;99.90
20728;DHT22;10525;50.154;8.198;2022-08-19T03:03:22;17.80;99.90
20728;DHT22;10525;50.154;8.198;2022-08-19T03:05:48;17.80;99.90
20728;DHT22;10525;50.154;8.198;2022-08-19T03:08:17;17.80;99.90
20728;DHT22;10525;50.154;8.198;2022-08-19T03:10:45;17.80;99.90
20728;DHT22;10525;50.154;8.198;2022-08-19T03:13:13;17.80;99.90
20728;DHT22;10525;50.154;8.198;2022-08-19T03:15:42;17.70;99.90
20728;DHT22;10525;50.154;8.198;2022-08-19T03:18:09;17.70;99.90
20728;DHT22;10525;50.154;8.198;2022-08-19T03:20:40;17.70;99.90
20728;DHT22;10525;50.154;8.198;2022-08-19T03:23:07;17.60;99.90
20728;DHT22;10525;50.154;8.198;2022-08-19T03:25:38;17.50;99.90
20728;DHT22;10525;50.154;8.198;2022-08-19T03:28:06;17.40;99.90
20728;DHT22;10525;50.154;8.198;2022-08-19T03:30:33;17.40;99.90
20728;DHT22;10525;50.154;8.198;2022-08-19T03:32:59;17.20;99.90
20728;DHT22;10525;50.154;8.198;2022-08-19T03:35:27;17.20;99.90
20728;DHT22;10525;50.154;8.198;2022-08-19T03:37:53;17.10;99.90
20728;DHT22;10525;50.154;8.198;2022-08-19T03:40:21;17.00;99.90
20728;DHT22;10525;50.154;8.198;2022-08-19T03:42:49;17.00;99.90
20728;DHT22;10525;50.154;8.198;2022-08-19T03:45:16;16.90;99.90
20728;DHT22;10525;50.154;8.198;2022-08-19T03:47:43;16.80;99.90
20728;DHT22;10525;50.154;8.198;2022-08-19T03:50:10;16.80;99.90
20728;DHT22;10525;50.154;8.198;2022-08-19T03:52:37;16.80;99.90
20728;DHT22;10525;50.154;8.198;2022-08-19T03:55:06;16.70;99.90
20728;DHT22;10525;50.154;8.198;2022-08-19T03:57:33;16.70;99.90
20728;DHT22;10525;50.154;8.198;2022-08-19T04:00:03;16.60;99.90
20728;DHT22;10525;50.154;8.198;2022-08-19T04:02:31;16.60;99.90
20728;DHT22;10525;50.154;8.198;2022-08-19T04:04:57;16.60;99.90
20728;DHT22;10525;50.154;8.198;2022-08-19T04:07:24;16.50;99.90
20728;DHT22;10525;50.154;8.198;2022-08-19T04:09:51;16.50;99.90
20728;DHT22;10525;50.154;8.198;2022-08-19T04:12:18;16.40;99.90
20728;DHT22;10525;50.154;8.198;2022-08-19T04:14:46;16.30;99.90
20728;DHT22;10525;50.154;8.198;2022-08-19T04:17:14;16.30;99.90
20728;DHT22;10525;50.154;8.198;2022-08-19T04:19:41;16.30;99.90
20728;DHT22;10525;50.154;8.198;2022-08-19T04:22:08;16.30;99.90
20728;DHT22;10525;50.154;8.198;2022-08-19T04:24:36;16.20;99.90
20728;DHT22;10525;50.154;8.198;2022-08-19T04:27:04;16.20;99.90
20728;DHT22;10525;50.154;8.198;2022-08-19T04:29:32;16.20;99.90
20728;DHT22;10525;50.154;8.198;2022-08-19T04:31:59;16.20;99.90
20728;DHT22;10525;50.154;8.198;2022-08-19T04:34:29;16.20;99.90
20728;DHT22;10525;50.154;8.198;2022-08-19T04:36:57;16.20;99.90
20728;DHT22;10525;50.154;8.198;2022-08-19T04:39:27;16.20;99.90
20728;DHT22;10525;50.154;8.198;2022-08-19T04:42:16;16.20;99.90
20728;DHT22;10525;50.154;8.198;2022-08-19T04:45:02;16.20;99.90
20728;DHT22;10525;50.154;8.198;2022-08-19T04:47:29;16.20;99.90
20728;DHT22;10525;50.154;8.198;2022-08-19T04:49:58;16.20;99.90
20728;DHT22;10525;50.154;8.198;2022-08-19T04:52:25;16.20;99.90
20728;DHT22;10525;50.154;8.198;2022-08-19T04:54:51;16.20;99.90
20728;DHT22;10525;50.154;8.198;2022-08-19T04:57:21;16.20;99.90
20728;DHT22;10525;50.154;8.198;2022-08-19T04:59:48;16.30;99.90
20728;DHT22;10525;50.154;8.198;2022-08-19T05:02:15;16.30;99.90
20728;DHT22;10525;50.154;8.198;2022-08-19T05:04:41;16.30;99.90
20728;DHT22;10525;50.154;8.198;2022-08-19T05:07:09;16.40;99.90
20728;DHT22;10525;50.154;8.198;2022-08-19T05:09:37;16.50;99.90
20728;DHT22;10525;50.154;8.198;2022-08-19T05:12:04;16.70;99.90
20728;DHT22;10525;50.154;8.198;2022-08-19T05:14:31;16.80;99.90
20728;DHT22;10525;50.154;8.198;2022-08-19T05:16:58;16.90;99.90
20728;DHT22;10525;50.154;8.198;2022-08-19T05:19:24;17.00;99.90
20728;DHT22;10525;50.154;8.198;2022-08-19T05:22:10;17.10;99.90
20728;DHT22;10525;50.154;8.198;2022-08-19T05:24:54;17.30;99.90
20728;DHT22;10525;50.154;8.198;2022-08-19T05:27:21;17.40;99.90
20728;DHT22;10525;50.154;8.198;2022-08-19T05:29:48;17.50;99.90
20728;DHT22;10525;50.154;8.198;2022-08-19T05:32:14;17.60;99.90
20728;DHT22;10525;50.154;8.198;2022-08-19T05:34:41;17.70;99.90
20728;DHT22;10525;50.154;8.198;2022-08-19T05:37:09;17.90;99.90
20728;DHT22;10525;50.154;8.198;2022-08-19T05:39:37;18.00;99.90
20728;DHT22;10525;50.154;8.198;2022-08-19T05:42:06;18.10;99.90
20728;DHT22;10525;50.154;8.198;2022-08-19T05:44:35;18.10;99.90
20728;DHT22;10525;50.154;8.198;2022-08-19T05:47:03;18.30;99.90
20728;DHT22;10525;50.154;8.198;2022-08-19T05:49:31;18.30;99.90
20728;DHT22;10525;50.154;8.198;2022-08-19T05:52:01;18.40;99.90
20728;DHT22;10525;50.154;8.198;2022-08-19T05:54:30;18.50;99.90
20728;DHT22;10525;50.154;8.198;2022-08-19T05:56:57;18.60;99.90
20728;DHT22;10525;50.154;8.198;2022-08-19T05:59:23;18.60;99.90
20728;DHT22;10525;50.154;8.198;2022-08-19T06:01:53;18.70;99.90
20728;DHT22;10525;50.154;8.198;2022-08-19T06:04:21;18.80;99.90
20728;DHT22;10525;50.154;8.198;2022-08-19T06:06:49;18.80;99.90
20728;DHT22;10525;50.154;8.198;2022-08-19T06:09:17;19.00;99.90
20728;DHT22;10525;50.154;8.198;2022-08-19T06:11:47;19.00;99.90
20728;DHT22;10525;50.154;8.198;2022-08-19T06:14:18;19.10;99.90
20728;DHT22;10525;50.154;8.198;2022-08-19T06:16:46;19.20;99.90
20728;DHT22;10525;50.154;8.198;2022-08-19T06:19:15;19.30;99.90
20728;DHT22;10525;50.154;8.198;2022-08-19T06:21:45;19.40;99.90
20728;DHT22;10525;50.154;8.198;2022-08-19T06:24:14;19.40;99.90
20728;DHT22;10525;50.154;8.198;2022-08-19T06:26:44;19.50;99.90
20728;DHT22;10525;50.154;8.198;2022-08-19T06:29:15;19.70;99.90
20728;DHT22;10525;50.154;8.198;2022-08-19T06:31:43;19.80;99.90
20728;DHT22;10525;50.154;8.198;2022-08-19T06:34:11;19.90;99.90
20728;DHT22;10525;50.154;8.198;2022-08-19T06:36:41;20.10;99.90
20728;DHT22;10525;50.154;8.198;2022-08-19T06:39:11;20.20;99.90
20728;DHT22;10525;50.154;8.198;2022-08-19T06:41:41;20.30;99.90
20728;DHT22;10525;50.154;8.198;2022-08-19T06:44:08;20.40;99.90
20728;DHT22;10525;50.154;8.198;2022-08-19T06:46:37;20.60;99.90
20728;DHT22;10525;50.154;8.198;2022-08-19T06:49:05;20.80;99.90
20728;DHT22;10525;50.154;8.198;2022-08-19T06:51:34;20.80;99.90
20728;DHT22;10525;50.154;8.198;2022-08-19T06:54:00;21.10;99.90
20728;DHT22;10525;50.154;8.198;2022-08-19T06:56:29;21.20;99.90
20728;DHT22;10525;50.154;8.198;2022-08-19T06:59:00;21.20;99.90
20728;DHT22;10525;50.154;8.198;2022-08-19T07:01:26;21.30;99.90
20728;DHT22;10525;50.154;8.198;2022-08-19T07:03:54;21.30;99.90
20728;DHT22;10525;50.154;8.198;2022-08-19T07:06:21;21.20;99.90
20728;DHT22;10525;50.154;8.198;2022-08-19T07:08:48;21.10;99.90
20728;DHT22;10525;50.154;8.198;2022-08-19T07:11:17;21.00;99.90
20728;DHT22;10525;50.154;8.198;2022-08-19T07:13:45;20.80;99.90
20728;DHT22;10525;50.154;8.198;2022-08-19T07:16:16;20.70;99.90
20728;DHT22;10525;50.154;8.198;2022-08-19T07:18:44;20.60;99.90
20728;DHT22;10525;50.154;8.198;2022-08-19T07:21:15;20.50;99.90
20728;DHT22;10525;50.154;8.198;2022-08-19T07:23:42;20.60;99.90
20728;DHT22;10525;50.154;8.198;2022-08-19T07:26:12;20.80;99.90
20728;DHT22;10525;50.154;8.198;2022-08-19T07:28:39;21.00;99.90
20728;DHT22;10525;50.154;8.198;2022-08-19T07:31:06;21.10;99.90
20728;DHT22;10525;50.154;8.198;2022-08-19T07:33:33;21.40;99.90
20728;DHT22;10525;50.154;8.198;2022-08-19T07:36:02;21.50;99.90
20728;DHT22;10525;50.154;8.198;2022-08-19T07:38:31;21.60;99.90
20728;DHT22;10525;50.154;8.198;2022-08-19T07:40:57;21.60;99.90
20728;DHT22;10525;50.154;8.198;2022-08-19T07:43:24;21.60;99.90
20728;DHT22;10525;50.154;8.198;2022-08-19T07:45:52;21.60;99.90
20728;DHT22;10525;50.154;8.198;2022-08-19T07:48:21;21.60;99.90
20728;DHT22;10525;50.154;8.198;2022-08-19T07:50:51;21.50;99.90
20728;DHT22;10525;50.154;8.198;2022-08-19T07:53:19;21.30;99.90
20728;DHT22;10525;50.154;8.198;2022-08-19T07:55:48;21.30;99.90
20728;DHT22;10525;50.154;8.198;2022-08-19T07:58:17;21.30;99.90
20728;DHT22;10525;50.154;8.198;2022-08-19T08:00:46;21.20;99.90
20728;DHT22;10525;50.154;8.198;2022-08-19T08:03:15;21.10;99.90
20728;DHT22;10525;50.154;8.198;2022-08-19T08:05:43;21.10;99.90
20728;DHT22;10525;50.154;8.198;2022-08-19T08:08:27;21.10;99.90
20728;DHT22;10525;50.154;8.198;2022-08-19T08:11:15;21.40;99.90
20728;DHT22;10525;50.154;8.198;2022-08-19T08:13:42;21.50;99.90
20728;DHT22;10525;50.154;8.198;2022-08-19T08:16:09;21.60;99.90
20728;DHT22;10525;50.154;8.198;2022-08-19T08:18:36;21.50;99.90
20728;DHT22;10525;50.154;8.198;2022-08-19T08:21:08;21.30;99.90
20728;DHT22;10525;50.154;8.198;2022-08-19T08:23:35;21.30;99.90
20728;DHT22;10525;50.154;8.198;2022-08-19T08:26:02;21.30;99.90
20728;DHT22;10525;50.154;8.198;2022-08-19T08:28:31;21.30;99.90
20728;DHT22;10525;50.154;8.198;2022-08-19T08:30:58;21.20;99.90
20728;DHT22;10525;50.154;8.198;2022-08-19T08:33:27;21.20;99.90
20728;DHT22;10525;50.154;8.198;2022-08-19T08:35:54;21.40;99.90
20728;DHT22;10525;50.154;8.198;2022-08-19T08:38:20;21.60;99.90
20728;DHT22;10525;50.154;8.198;2022-08-19T08:40:49;21.90;99.90
20728;DHT22;10525;50.154;8.198;2022-08-19T08:43:23;22.00;99.90
20728;DHT22;10525;50.154;8.198;2022-08-19T08:45:59;21.80;99.90
20728;DHT22;10525;50.154;8.198;2022-08-19T08:48:36;21.80;99.90
20728;DHT22;10525;50.154;8.198;2022-08-19T08:51:06;21.80;99.90
20728;DHT22;10525;50.154;8.198;2022-08-19T08:53:35;22.00;99.90
20728;DHT22;10525;50.154;8.198;2022-08-19T08:56:06;22.10;99.90
20728;DHT22;10525;50.154;8.198;2022-08-19T08:58:43;22.10;99.90
20728;DHT22;10525;50.154;8.198;2022-08-19T09:01:13;22.00;99.90
20728;DHT22;10525;50.154;8.198;2022-08-19T09:03:41;21.90;99.90
20728;DHT22;10525;50.154;8.198;2022-08-19T09:06:14;22.00;99.90
20728;DHT22;10525;50.154;8.198;2022-08-19T09:08:59;22.00;99.90
20728;DHT22;10525;50.154;8.198;2022-08-19T09:11:41;22.10;99.90
20728;DHT22;10525;50.154;8.198;2022-08-19T09:14:17;22.00;99.90
20728;DHT22;10525;50.154;8.198;2022-08-19T09:16:45;22.00;99.90
20728;DHT22;10525;50.154;8.198;2022-08-19T09:19:13;22.10;99.90
20728;DHT22;10525;50.154;8.198;2022-08-19T09:21:43;22.40;99.90
20728;DHT22;10525;50.154;8.198;2022-08-19T09:24:10;22.60;99.90
20728;DHT22;10525;50.154;8.198;2022-08-19T09:26:37;22.70;99.90
20728;DHT22;10525;50.154;8.198;2022-08-19T09:29:04;22.80;99.90
20728;DHT22;10525;50.154;8.198;2022-08-19T09:31:32;22.90;99.90
20728;DHT22;10525;50.154;8.198;2022-08-19T09:34:00;23.10;99.90
20728;DHT22;10525;50.154;8.198;2022-08-19T09:36:30;22.80;99.90
20728;DHT22;10525;50.154;8.198;2022-08-19T09:38:59;22.80;99.90
20728;DHT22;10525;50.154;8.198;2022-08-19T09:41:26;22.90;99.90
20728;DHT22;10525;50.154;8.198;2022-08-19T09:43:54;23.00;99.90
20728;DHT22;10525;50.154;8.198;2022-08-19T09:46:22;23.00;99.90
20728;DHT22;10525;50.154;8.198;2022-08-19T09:48:50;23.20;99.90
20728;DHT22;10525;50.154;8.198;2022-08-19T09:51:21;23.50;99.90
20728;DHT22;10525;50.154;8.198;2022-08-19T09:53:49;23.80;99.90
20728;DHT22;10525;50.154;8.198;2022-08-19T09:56:18;23.90;99.90
20728;DHT22;10525;50.154;8.198;2022-08-19T09:58:45;23.70;99.90
20728;DHT22;10525;50.154;8.198;2022-08-19T10:01:16;23.70;99.90
20728;DHT22;10525;50.154;8.198;2022-08-19T10:03:43;23.80;99.90
20728;DHT22;10525;50.154;8.198;2022-08-19T10:06:12;23.80;99.90
20728;DHT22;10525;50.154;8.198;2022-08-19T10:08:40;23.90;99.90
20728;DHT22;10525;50.154;8.198;2022-08-19T10:11:09;24.10;99.90
20728;DHT22;10525;50.154;8.198;2022-08-19T10:13:36;24.10;99.90
20728;DHT22;10525;50.154;8.198;2022-08-19T10:16:06;24.30;99.90
20728;DHT22;10525;50.154;8.198;2022-08-19T10:18:33;24.20;99.90
20728;DHT22;10525;50.154;8.198;2022-08-19T10:21:06;24.20;99.90
20728;DHT22;10525;50.154;8.198;2022-08-19T10:23:34;24.00;99.90
20728;DHT22;10525;50.154;8.198;2022-08-19T10:26:03;23.80;99.90
20728;DHT22;10525;50.154;8.198;2022-08-19T10:28:31;24.00;99.90
20728;DHT22;10525;50.154;8.198;2022-08-19T10:30:58;24.20;99.90
20728;DHT22;10525;50.154;8.198;2022-08-19T10:33:25;24.10;99.90
20728;DHT22;10525;50.154;8.198;2022-08-19T10:35:59;24.10;99.90
20728;DHT22;10525;50.154;8.198;2022-08-19T10:38:26;24.10;99.90
20728;DHT22;10525;50.154;8.198;2022-08-19T10:40:54;24.30;99.90
20728;DHT22;10525;50.154;8.198;2022-08-19T10:43:22;24.60;99.90
20728;DHT22;10525;50.154;8.198;2022-08-19T10:45:52;24.70;99.90
20728;DHT22;10525;50.154;8.198;2022-08-19T10:48:20;24.50;99.90
20728;DHT22;10525;50.154;8.198;2022-08-19T10:50:47;24.20;99.90
20728;DHT22;10525;50.154;8.198;2022-08-19T10:53:31;24.30;99.90
20728;DHT22;10525;50.154;8.198;2022-08-19T10:55:57;24.50;99.90
20728;DHT22;10525;50.154;8.198;2022-08-19T10:58:43;24.50;99.90
20728;DHT22;10525;50.154;8.198;2022-08-19T11:01:10;24.60;99.90
20728;DHT22;10525;50.154;8.198;2022-08-19T11:03:37;24.80;99.90
20728;DHT22;10525;50.154;8.198;2022-08-19T11:06:06;24.80;99.90
20728;DHT22;10525;50.154;8.198;2022-08-19T11:08:34;25.00;99.90
20728;DHT22;10525;50.154;8.198;2022-08-19T11:11:04;25.00;99.90
20728;DHT22;10525;50.154;8.198;2022-08-19T11:13:33;24.90;99.90
20728;DHT22;10525;50.154;8.198;2022-08-19T11:16:07;24.80;99.90
20728;DHT22;10525;50.154;8.198;2022-08-19T11:18:36;25.00;99.90
20728;DHT22;10525;50.154;8.198;2022-08-19T11:21:11;25.20;99.90
20728;DHT22;10525;50.154;8.198;2022-08-19T11:23:38;25.40;99.90
20728;DHT22;10525;50.154;8.198;2022-08-19T11:26:05;25.40;99.90
20728;DHT22;10525;50.154;8.198;2022-08-19T11:28:31;25.20;99.90
20728;DHT22;10525;50.154;8.198;2022-08-19T11:30:58;24.90;99.90
20728;DHT22;10525;50.154;8.198;2022-08-19T11:33:26;25.10;99.90
20728;DHT22;10525;50.154;8.198;2022-08-19T11:35:53;25.30;99.90
20728;DHT22;10525;50.154;8.198;2022-08-19T11:38:20;25.50;99.90
20728;DHT22;10525;50.154;8.198;2022-08-19T11:40:54;25.40;99.90
20728;DHT22;10525;50.154;8.198;2022-08-19T11:43:21;25.00;99.90
20728;DHT22;10525;50.154;8.198;2022-08-19T11:45:48;24.80;99.90
20728;DHT22;10525;50.154;8.198;2022-08-19T11:48:14;24.80;99.90
20728;DHT22;10525;50.154;8.198;2022-08-19T11:50:42;25.00;99.90
20728;DHT22;10525;50.154;8.198;2022-08-19T11:53:09;25.00;99.90
20728;DHT22;10525;50.154;8.198;2022-08-19T11:55:37;25.00;99.90
20728;DHT22;10525;50.154;8.198;2022-08-19T11:58:04;25.20;99.90
20728;DHT22;10525;50.154;8.198;2022-08-19T12:00:32;25.20;99.90
20728;DHT22;10525;50.154;8.198;2022-08-19T12:02:59;25.20;99.90
20728;DHT22;10525;50.154;8.198;2022-08-19T12:05:26;25.20;99.90
20728;DHT22;10525;50.154;8.198;2022-08-19T12:07:54;25.30;99.90
20728;DHT22;10525;50.154;8.198;2022-08-19T12:10:21;25.30;99.90
20728;DHT22;10525;50.154;8.198;2022-08-19T12:12:48;25.40;99.90
20728;DHT22;10525;50.154;8.198;2022-08-19T12:15:15;25.50;99.90
20728;DHT22;10525;50.154;8.198;2022-08-19T12:17:42;25.50;99.90
20728;DHT22;10525;50.154;8.198;2022-08-19T12:20:10;25.50;99.90
20728;DHT22;10525;50.154;8.198;2022-08-19T12:22:39;25.60;99.90
20728;DHT22;10525;50.154;8.198;2022-08-19T12:25:09;25.70;99.90
20728;DHT22;10525;50.154;8.198;2022-08-19T12:27:36;25.70;99.90
20728;DHT22;10525;50.154;8.198;2022-08-19T12:30:05;25.50;99.90
20728;DHT22;10525;50.154;8.198;2022-08-19T12:32:33;25.60;99.90
20728;DHT22;10525;50.154;8.198;2022-08-19T12:35:00;25.80;99.90
20728;DHT22;10525;50.154;8.198;2022-08-19T12:37:26;25.80;99.90
20728;DHT22;10525;50.154;8.198;2022-08-19T12:39:53;25.30;99.90
20728;DHT22;10525;50.154;8.198;2022-08-19T12:42:21;25.20;99.90
20728;DHT22;10525;50.154;8.198;2022-08-19T12:44:48;25.20;99.90
20728;DHT22;10525;50.154;8.198;2022-08-19T12:47:15;25.50;99.90
20728;DHT22;10525;50.154;8.198;2022-08-19T12:49:42;25.70;99.90
20728;DHT22;10525;50.154;8.198;2022-08-19T12:52:09;25.90;99.90
20728;DHT22;10525;50.154;8.198;2022-08-19T12:54:37;25.80;99.90
20728;DHT22;10525;50.154;8.198;2022-08-19T12:57:06;25.70;99.90
20728;DHT22;10525;50.154;8.198;2022-08-19T12:59:34;25.70;99.90
20728;DHT22;10525;50.154;8.198;2022-08-19T13:02:02;25.80;99.90
20728;DHT22;10525;50.154;8.198;2022-08-19T13:04:30;26.00;99.90
20728;DHT22;10525;50.154;8.198;2022-08-19T13:06:58;26.00;99.90
20728;DHT22;10525;50.154;8.198;2022-08-19T13:09:24;25.70;99.90
20728;DHT22;10525;50.154;8.198;2022-08-19T13:11:51;25.50;99.90
20728;DHT22;10525;50.154;8.198;2022-08-19T13:14:18;25.50;99.90
20728;DHT22;10525;50.154;8.198;2022-08-19T13:16:46;25.70;99.90
20728;DHT22;10525;50.154;8.198;2022-08-19T13:19:12;25.90;99.90
20728;DHT22;10525;50.154;8.198;2022-08-19T13:21:39;26.20;99.90
20728;DHT22;10525;50.154;8.198;2022-08-19T13:24:06;26.40;99.90
20728;DHT22;10525;50.154;8.198;2022-08-19T13:26:33;26.50;99.90
20728;DHT22;10525;50.154;8.198;2022-08-19T13:28:59;26.40;99.90
20728;DHT22;10525;50.154;8.198;2022-08-19T13:31:43;26.20;99.90
20728;DHT22;10525;50.154;8.198;2022-08-19T13:34:31;26.30;99.90
20728;DHT22;10525;50.154;8.198;2022-08-19T13:36:59;26.60;99.90
20728;DHT22;10525;50.154;8.198;2022-08-19T13:39:28;27.00;99.90
20728;DHT22;10525;50.154;8.198;2022-08-19T13:41:55;27.00;99.90
20728;DHT22;10525;50.154;8.198;2022-08-19T13:44:22;26.70;99.90
20728;DHT22;10525;50.154;8.198;2022-08-19T13:46:49;26.30;99.90
20728;DHT22;10525;50.154;8.198;2022-08-19T13:49:18;26.10;99.90
20728;DHT22;10525;50.154;8.198;2022-08-19T13:51:47;26.20;99.90
20728;DHT22;10525;50.154;8.198;2022-08-19T13:54:13;26.50;99.90
20728;DHT22;10525;50.154;8.198;2022-08-19T13:56:41;26.80;99.90
20728;DHT22;10525;50.154;8.198;2022-08-19T13:59:08;26.80;99.90
20728;DHT22;10525;50.154;8.198;2022-08-19T14:01:35;26.80;99.90
20728;DHT22;10525;50.154;8.198;2022-08-19T14:04:02;26.90;99.90
20728;DHT22;10525;50.154;8.198;2022-08-19T14:06:29;27.00;99.90
20728;DHT22;10525;50.154;8.198;2022-08-19T14:08:57;27.20;99.90
20728;DHT22;10525;50.154;8.198;2022-08-19T14:11:23;27.10;99.90
20728;DHT22;10525;50.154;8.198;2022-08-19T14:13:50;26.60;99.90
20728;DHT22;10525;50.154;8.198;2022-08-19T14:16:17;26.40;99.90
20728;DHT22;10525;50.154;8.198;2022-08-19T14:18:44;26.30;99.90
20728;DHT22;10525;50.154;8.198;2022-08-19T14:21:16;26.40;99.90
20728;DHT22;10525;50.154;8.198;2022-08-19T14:23:43;26.70;99.90
20728;DHT22;10525;50.154;8.198;2022-08-19T14:26:14;26.70;99.90
20728;DHT22;10525;50.154;8.198;2022-08-19T14:28:42;26.70;99.90
20728;DHT22;10525;50.154;8.198;2022-08-19T14:31:09;26.60;99.90
20728;DHT22;10525;50.154;8.198;2022-08-19T14:33:36;26.40;99.90
20728;DHT22;10525;50.154;8.198;2022-08-19T14:36:04;26.60;99.90
20728;DHT22;10525;50.154;8.198;2022-08-19T14:38:31;26.70;99.90
20728;DHT22;10525;50.154;8.198;2022-08-19T14:41:07;26.90;99.90
20728;DHT22;10525;50.154;8.198;2022-08-19T14:43:36;27.20;99.90
20728;DHT22;10525;50.154;8.198;2022-08-19T14:46:04;27.20;99.90
20728;DHT22;10525;50.154;8.198;2022-08-19T14:48:30;27.20;99.90
20728;DHT22;10525;50.154;8.198;2022-08-19T14:50:57;27.20;99.90
20728;DHT22;10525;50.154;8.198;2022-08-19T14:53:24;27.00;99.90
20728;DHT22;10525;50.154;8.198;2022-08-19T14:55:51;27.00;99.90
20728;DHT22;10525;50.154;8.198;2022-08-19T14:58:17;27.00;99.90
20728;DHT22;10525;50.154;8.198;2022-08-19T15:00:45;26.80;99.90
20728;DHT22;10525;50.154;8.198;2022-08-19T15:03:13;26.70;99.90
20728;DHT22;10525;50.154;8.198;2022-08-19T15:05:39;26.90;99.90
20728;DHT22;10525;50.154;8.198;2022-08-19T15:08:06;27.00;99.90
20728;DHT22;10525;50.154;8.198;2022-08-19T15:10:33;27.10;99.90
20728;DHT22;10525;50.154;8.198;2022-08-19T15:12:59;27.10;99.90
20728;DHT22;10525;50.154;8.198;2022-08-19T15:15:26;27.10;99.90
20728;DHT22;10525;50.154;8.198;2022-08-19T15:17:55;27.00;99.90
20728;DHT22;10525;50.154;8.198;2022-08-19T15:20:27;27.00;99.90
20728;DHT22;10525;50.154;8.198;2022-08-19T15:22:54;27.00;99.90
20728;DHT22;10525;50.154;8.198;2022-08-19T15:25:21;26.90;99.90
20728;DHT22;10525;50.154;8.198;2022-08-19T15:27:48;26.80;99.90
20728;DHT22;10525;50.154;8.198;2022-08-19T15:30:19;26.50;99.90
20728;DHT22;10525;50.154;8.198;2022-08-19T15:32:47;26.60;99.90
20728;DHT22;10525;50.154;8.198;2022-08-19T15:35:16;26.50;99.90
20728;DHT22;10525;50.154;8.198;2022-08-19T15:37:43;26.50;99.90